Time;durP1;ratioP1;P1;durP2;ratioP2;P2;SDS_P1;SDS_P2;PMS_P1;PMS_P2;Temp;Humidity;BMP_temperature;BMP_pressure;BME280_temperature;BME280_humidity;BME280_pressure;Samples;Min_cycle;Max_cycle;Signal;HPM_P1;HPM_P2
2022/01/16 00:01:44;;;;;;;114.00;70.50;;;;;;;-0.74;81.43;98816.27;109656;1274;22505;-74
2022/01/16 00:04:11;;;;;;;112.40;70.90;;;;;;;-0.66;81.24;98823.73;109624;1274;22423;-72
2022/01/16 00:06:42;;;;;;;103.40;69.50;;;;;;;-0.67;80.95;98835.28;109633;1273;22649;-75
2022/01/16 00:09:11;;;;;;;122.60;74.00;;;;;;;-0.71;81.01;98826.98;109676;1274;23123;-71
2022/01/16 00:11:39;;;;;;;120.30;70.20;;;;;;;-0.77;81.06;98823.76;109654;1274;23108;-73
2022/01/16 00:14:07;;;;;;;114.90;68.70;;;;;;;-0.81;81.12;98825.02;109646;1273;23583;-73
2022/01/16 00:16:35;;;;;;;119.40;70.70;;;;;;;-0.84;81.05;98823.67;109679;1274;22465;-73
2022/01/16 00:19:03;;;;;;;121.30;72.90;;;;;;;-0.82;81.15;98822.21;109658;1274;23200;-75
2022/01/16 00:21:37;;;;;;;106.90;73.70;;;;;;;-0.76;81.54;98808.81;109648;1273;22247;-72
2022/01/16 00:24:07;;;;;;;115.20;73.10;;;;;;;-0.73;81.39;98796.73;109567;1274;22435;-72
2022/01/16 00:26:36;;;;;;;110.90;70.30;;;;;;;-0.71;81.60;98778.61;109675;1273;23202;-75
2022/01/16 00:29:08;;;;;;;87.20;64.50;;;;;;;-0.67;81.41;98796.81;109702;1274;22629;-71
2022/01/16 00:31:38;;;;;;;84.70;63.20;;;;;;;-0.63;81.17;98807.67;109670;1274;22613;-71
2022/01/16 00:34:08;;;;;;;87.10;58.40;;;;;;;-0.65;80.95;98785.16;109660;1274;22512;-70
2022/01/16 00:36:36;;;;;;;85.80;61.40;;;;;;;-0.70;81.05;98794.93;109684;1273;23305;-72
2022/01/16 00:39:07;;;;;;;80.30;61.30;;;;;;;-0.75;81.27;98780.08;109666;1273;22316;-72
2022/01/16 00:41:35;;;;;;;118.90;72.20;;;;;;;-0.80;81.52;98762.56;109684;1274;23348;-71
2022/01/16 00:44:06;;;;;;;89.60;67.50;;;;;;;-0.85;81.53;98750.96;109688;1273;22489;-71
2022/01/16 00:46:35;;;;;;;75.90;59.00;;;;;;;-0.86;81.65;98793.79;109681;1274;22462;-70
2022/01/16 00:49:04;;;;;;;70.80;58.80;;;;;;;-0.84;81.53;98791.55;109671;1273;22599;-70
2022/01/16 00:51:32;;;;;;;100.00;71.20;;;;;;;-0.81;81.37;98791.42;109663;1273;22583;-70
2022/01/16 00:54:00;;;;;;;142.20;84.60;;;;;;;-0.82;81.47;98799.61;109687;1274;23068;-71
2022/01/16 00:56:29;;;;;;;193.90;91.70;;;;;;;-0.89;81.30;98794.31;109686;1273;22404;-70
2022/01/16 00:58:57;;;;;;;192.80;91.10;;;;;;;-1.00;81.18;98789.27;109690;1274;22329;-71
2022/01/16 01:01:26;;;;;;;192.30;95.40;;;;;;;-1.11;81.42;98758.92;109689;1273;22492;-71
2022/01/16 01:03:54;;;;;;;161.60;90.60;;;;;;;-1.20;81.40;98758.87;109702;1273;22526;-70
2022/01/16 01:06:22;;;;;;;150.90;86.70;;;;;;;-1.28;81.20;98777.50;109680;1274;23205;-68
2022/01/16 01:08:50;;;;;;;157.80;88.80;;;;;;;-1.33;81.21;98773.09;109684;1273;22532;-70
2022/01/16 01:11:24;;;;;;;203.70;95.80;;;;;;;-1.34;81.18;98779.44;109668;1274;22588;-70
2022/01/16 01:16:48;;;;;;;205.40;99.00;;;;;;;-1.48;81.26;98737.48;109690;1273;23256;-70
2022/01/16 01:19:19;;;;;;;199.30;101.40;;;;;;;-1.55;81.56;98750.55;109566;1273;138102;-69
2022/01/16 01:21:48;;;;;;;192.50;97.90;;;;;;;-1.57;81.60;98759.33;109649;1273;23176;-69
2022/01/16 01:24:16;;;;;;;182.60;90.00;;;;;;;-1.60;81.60;98730.77;109689;1273;22548;-66
2022/01/16 01:27:31;;;;;;;192.00;99.20;;;;;;;-1.60;81.66;98747.41;109669;1272;22488;-69
2022/01/16 01:29:32;;;;;;;220.30;103.40;;;;;;;-1.63;81.40;98754.72;109555;1274;22380;-70
2022/01/16 01:32:01;;;;;;;223.90;107.10;;;;;;;-1.68;81.65;98744.70;109677;1272;22477;-69
2022/01/16 01:34:37;;;;;;;230.80;109.20;;;;;;;-1.75;81.53;98745.21;109661;1273;22242;-68
2022/01/16 01:37:05;;;;;;;280.50;114.70;;;;;;;-1.81;81.38;98641.92;109687;1273;22451;-69
2022/01/16 01:39:35;;;;;;;257.30;99.20;;;;;;;-1.89;81.41;98625.40;109613;1274;22484;-70
2022/01/16 01:42:08;;;;;;;200.60;91.40;;;;;;;-1.93;81.36;98639.83;109669;1273;22599;-70
2022/01/16 01:52:59;;;;;;;400.40;102.80;;;;;;;-2.13;81.56;98642.37;109700;1273;23296;-71
2022/01/16 01:55:27;;;;;;;281.10;108.40;;;;;;;-2.21;81.44;98662.44;109582;1273;138030;-69
2022/01/16 01:57:56;;;;;;;230.80;100.10;;;;;;;-2.29;81.37;98671.95;109676;1273;22457;-70
2022/01/16 02:00:24;;;;;;;207.60;96.50;;;;;;;-2.36;81.19;98663.85;109679;1273;22552;-69
2022/01/16 02:05:24;;;;;;;221.10;105.20;;;;;;;-2.44;81.22;98669.21;109674;1273;22481;-68
2022/01/16 02:07:54;;;;;;;279.60;104.30;;;;;;;-2.47;81.52;98687.63;109662;1272;22548;-68
2022/01/16 02:10:23;;;;;;;262.80;117.60;;;;;;;-2.50;81.63;98666.54;109679;1274;23336;-69
2022/01/16 02:12:59;;;;;;;323.40;125.00;;;;;;;-2.54;81.70;98656.16;109669;1274;22582;-72
2022/01/16 02:27:55;;;;;;;203.60;95.70;;;;;;;-2.61;81.62;98669.98;109670;1274;22568;-70
2022/01/16 02:35:26;;;;;;;164.60;98.50;;;;;;;-2.68;82.31;98690.85;109597;1273;23232;-71
2022/01/16 02:37:55;;;;;;;188.00;105.40;;;;;;;-2.60;82.24;98699.33;109665;1274;22381;-71
2022/01/16 02:40:26;;;;;;;190.30;113.50;;;;;;;-2.54;82.34;98692.83;109676;1273;22645;-71
2022/01/16 02:42:54;;;;;;;227.50;117.00;;;;;;;-2.49;82.48;98695.73;109671;1273;22549;-70
2022/01/16 02:45:31;;;;;;;213.50;123.40;;;;;;;-2.46;82.42;98693.81;109678;1273;22408;-69
2022/01/16 02:48:12;;;;;;;191.60;113.00;;;;;;;-2.46;82.26;98679.35;109675;1273;23258;-71
2022/01/16 02:50:45;;;;;;;188.80;102.60;;;;;;;-2.48;82.11;98678.58;109682;1274;22451;-69
2022/01/16 02:53:13;;;;;;;184.50;98.00;;;;;;;-2.48;82.02;98683.94;109671;1272;22490;-70
2022/01/16 02:55:43;;;;;;;222.70;106.10;;;;;;;-2.48;82.00;98678.41;109700;1274;23176;-70
2022/01/16 02:58:12;;;;;;;206.90;106.80;;;;;;;-2.51;81.93;98674.50;109656;1273;22560;-69
2022/01/16 03:00:40;;;;;;;239.70;110.00;;;;;;;-2.53;82.19;98675.14;109665;1273;23153;-69
2022/01/16 03:03:08;;;;;;;232.20;120.50;;;;;;;-2.58;82.16;98681.33;109675;1274;22477;-68
2022/01/16 03:05:36;;;;;;;199.80;104.70;;;;;;;-2.64;82.08;98679.35;109587;1274;23177;-70
2022/01/16 03:08:05;;;;;;;212.70;94.50;;;;;;;-2.67;82.08;98682.45;109674;1273;22463;-67
2022/01/16 03:11:09;;;;;;;161.80;86.90;;;;;;;-2.75;81.73;98678.98;109699;1273;22333;-67
2022/01/16 03:13:44;;;;;;;215.80;96.40;;;;;;;-2.82;82.04;98672.98;109695;1272;22564;-68
2022/01/16 03:16:12;;;;;;;277.50;104.30;;;;;;;-2.83;82.21;98669.48;109673;1273;22554;-67
2022/01/16 03:24:13;;;;;;;219.60;106.20;;;;;;;-2.79;82.66;98666.67;109606;1274;22531;-72
2022/01/16 03:26:42;;;;;;;226.20;106.70;;;;;;;-2.79;82.47;98667.53;109662;1274;22445;-72
2022/01/16 03:29:10;;;;;;;240.30;111.60;;;;;;;-2.80;82.29;98666.70;109668;1274;22554;-72
2022/01/16 03:31:38;;;;;;;264.00;115.00;;;;;;;-2.78;82.25;98661.81;109676;1274;22581;-71
2022/01/16 03:34:06;;;;;;;270.80;113.10;;;;;;;-2.82;82.18;98656.20;109661;1274;22595;-73
2022/01/16 03:36:34;;;;;;;285.40;128.50;;;;;;;-2.88;82.24;98654.41;109672;1273;22558;-72
2022/01/16 03:39:03;;;;;;;304.60;123.30;;;;;;;-2.95;82.30;98646.70;109686;1274;22470;-69
2022/01/16 03:41:33;;;;;;;226.00;108.60;;;;;;;-3.03;82.46;98639.95;109674;1274;22610;-71
2022/01/16 03:44:02;;;;;;;182.00;100.50;;;;;;;-3.10;82.33;98637.67;109589;1274;22430;-73
2022/01/16 03:46:35;;;;;;;167.50;96.20;;;;;;;-3.13;82.35;98626.05;109559;1272;139447;-73
2022/01/16 03:49:12;;;;;;;190.00;109.10;;;;;;;-3.17;82.27;98621.98;109652;1273;22467;-72
2022/01/16 03:51:42;;;;;;;200.00;112.30;;;;;;;-3.19;82.53;98612.88;109684;1273;22491;-74
2022/01/16 03:54:13;;;;;;;199.50;111.00;;;;;;;-3.20;82.70;98614.70;109692;1273;22536;-74
2022/01/16 03:56:41;;;;;;;193.70;110.00;;;;;;;-3.19;82.75;98610.03;109675;1274;22997;-72
2022/01/16 03:59:10;;;;;;;168.30;94.60;;;;;;;-3.18;82.72;98605.02;109665;1273;22586;-74
2022/01/16 04:01:39;;;;;;;152.90;87.10;;;;;;;-3.19;82.64;98602.09;109663;1272;22595;-70
2022/01/16 04:04:07;;;;;;;154.00;93.60;;;;;;;-3.18;82.45;98602.94;109677;1273;22397;-71
2022/01/16 04:06:35;;;;;;;175.80;101.00;;;;;;;-3.19;82.31;98607.77;109669;1274;22428;-72
2022/01/16 04:09:04;;;;;;;183.90;104.40;;;;;;;-3.21;82.44;98607.19;109681;1273;23182;-73
2022/01/16 04:11:33;;;;;;;241.70;112.20;;;;;;;-3.23;82.50;98606.77;109680;1274;22502;-73
2022/01/16 04:14:07;;;;;;;276.50;121.70;;;;;;;-3.28;82.50;98608.23;109688;1274;23178;-73
2022/01/16 04:16:36;;;;;;;212.80;104.60;;;;;;;-3.33;82.51;98610.35;109665;1273;22537;-73
2022/01/16 04:19:05;;;;;;;210.30;101.20;;;;;;;-3.35;82.62;98602.51;109678;1274;22435;-72
2022/01/16 04:21:33;;;;;;;213.10;102.70;;;;;;;-3.33;82.69;98599.77;109665;1273;23296;-73
2022/01/16 04:24:01;;;;;;;218.20;99.10;;;;;;;-3.31;82.50;98603.72;109674;1274;22501;-74
2022/01/16 04:26:30;;;;;;;258.30;107.50;;;;;;;-3.33;82.61;98601.39;109670;1273;23082;-75
2022/01/16 04:28:57;;;;;;;273.00;105.70;;;;;;;-3.35;82.57;98603.11;109694;1272;23249;-72
2022/01/16 04:31:25;;;;;;;252.40;107.10;;;;;;;-3.41;82.56;98601.69;109667;1273;22584;-74
2022/01/16 04:33:54;;;;;;;237.10;104.80;;;;;;;-3.45;82.74;98601.95;109676;1272;22965;-73
2022/01/16 04:36:22;;;;;;;193.40;91.70;;;;;;;-3.45;82.81;98600.23;109676;1272;22495;-72
2022/01/16 04:38:52;;;;;;;224.70;107.10;;;;;;;-3.45;82.55;98597.97;109678;1274;23169;-75
2022/01/16 04:44:06;;;;;;;192.50;98.70;;;;;;;-3.44;82.83;98582.05;109683;1272;22520;-75
2022/01/16 04:46:34;;;;;;;196.40;107.60;;;;;;;-3.45;82.94;98577.95;109676;1272;23090;-75
2022/01/16 04:49:03;;;;;;;232.30;107.60;;;;;;;-3.47;82.91;98580.77;109672;1274;22423;-76
2022/01/16 04:51:32;;;;;;;190.50;108.20;;;;;;;-3.55;82.54;98586.58;109610;1273;23075;-74
2022/01/16 04:54:00;;;;;;;172.10;95.90;;;;;;;-3.70;82.34;98585.95;109678;1272;22419;-75
2022/01/16 04:56:29;;;;;;;204.70;107.60;;;;;;;-3.75;82.36;98579.46;109661;1274;22708;-74
2022/01/16 04:58:57;;;;;;;206.80;111.10;;;;;;;-3.79;82.50;98576.87;109600;1274;22414;-74
2022/01/16 05:01:26;;;;;;;223.20;108.50;;;;;;;-3.82;82.56;98573.23;109688;1273;22485;-73
2022/01/16 05:03:54;;;;;;;184.10;109.80;;;;;;;-3.90;82.32;98573.00;109673;1273;22453;-74
2022/01/16 05:06:22;;;;;;;215.00;116.00;;;;;;;-3.96;82.69;98575.14;109684;1272;22404;-74
2022/01/16 05:08:50;;;;;;;230.00;120.80;;;;;;;-4.01;82.79;98567.35;109671;1273;22504;-72
2022/01/16 05:11:24;;;;;;;165.30;103.50;;;;;;;-4.10;82.55;98566.15;109672;1274;22511;-73
2022/01/16 05:16:38;;;;;;;159.30;95.60;;;;;;;-4.17;82.30;98566.44;109685;1274;22486;-73
2022/01/16 05:19:12;;;;;;;189.10;110.30;;;;;;;-4.22;82.13;98562.23;109661;1274;23141;-74
2022/01/16 05:21:42;;;;;;;201.10;114.60;;;;;;;-4.29;82.09;98564.00;109575;1273;137999;-71
2022/01/16 05:24:11;;;;;;;187.50;108.60;;;;;;;-4.38;82.14;98560.24;109682;1273;22498;-74
2022/01/16 05:26:43;;;;;;;178.80;105.60;;;;;;;-4.46;82.18;98556.31;109677;1274;22539;-75
2022/01/16 05:29:13;;;;;;;185.50;109.20;;;;;;;-4.53;82.20;98555.42;109677;1273;22452;-73
2022/01/16 05:31:47;;;;;;;164.70;94.70;;;;;;;-4.60;82.24;98556.25;109662;1274;23153;-72
2022/01/16 05:34:23;;;;;;;151.10;89.70;;;;;;;-4.61;82.34;98549.43;109694;1272;22342;-72
2022/01/16 05:36:52;;;;;;;150.90;92.60;;;;;;;-4.60;82.05;98551.34;109681;1272;22462;-72
2022/01/16 05:39:20;;;;;;;173.90;101.50;;;;;;;-4.62;81.85;98551.80;109662;1273;22429;-70
2022/01/16 05:41:48;;;;;;;181.70;109.30;;;;;;;-4.70;81.70;98545.73;109652;1273;22480;-71
2022/01/16 05:44:16;;;;;;;158.90;98.00;;;;;;;-4.71;82.14;98532.77;109655;1273;23145;-71
2022/01/16 05:46:44;;;;;;;164.70;101.90;;;;;;;-4.76;81.90;98535.30;109654;1272;23477;-70
2022/01/16 05:49:12;;;;;;;173.50;104.60;;;;;;;-4.79;82.10;98540.56;109665;1272;23164;-72
2022/01/16 05:51:40;;;;;;;205.60;131.10;;;;;;;-4.82;82.34;98539.61;109661;1274;22494;-71
2022/01/16 05:54:08;;;;;;;131.20;84.90;;;;;;;-4.82;82.25;98538.35;109668;1273;22543;-72
2022/01/16 05:56:36;;;;;;;133.10;89.30;;;;;;;-4.82;81.78;98539.77;109680;1273;22463;-73
2022/01/16 05:59:04;;;;;;;157.70;96.50;;;;;;;-4.84;81.80;98536.55;109653;1274;22444;-72
2022/01/16 06:01:32;;;;;;;174.00;104.40;;;;;;;-4.85;82.04;98533.89;109674;1273;22511;-73
2022/01/16 06:04:00;;;;;;;157.80;96.30;;;;;;;-4.88;82.03;98524.77;109675;1274;22493;-69
2022/01/16 06:06:29;;;;;;;159.90;99.30;;;;;;;-4.88;82.30;98521.94;109691;1274;23229;-67
2022/01/16 06:08:57;;;;;;;158.60;100.90;;;;;;;-4.90;82.14;98521.98;109573;1274;138081;-72
2022/01/16 06:11:26;;;;;;;156.30;96.10;;;;;;;-4.98;81.80;98524.73;109674;1274;22501;-71
2022/01/16 06:13:54;;;;;;;141.90;90.30;;;;;;;-5.09;81.41;98525.81;109678;1273;23041;-72
2022/01/16 06:16:22;;;;;;;136.70;90.20;;;;;;;-5.14;81.71;98522.90;109679;1274;22438;-71
2022/01/16 06:18:51;;;;;;;125.20;88.70;;;;;;;-5.15;81.86;98523.77;109690;1273;22544;-71
2022/01/16 06:21:19;;;;;;;137.10;91.70;;;;;;;-5.12;82.15;98520.98;109686;1274;22466;-71
2022/01/16 06:23:47;;;;;;;165.40;101.90;;;;;;;-5.13;81.94;98518.60;109681;1273;23165;-72
2022/01/16 06:26:15;;;;;;;183.70;109.90;;;;;;;-5.20;81.77;98512.48;109680;1274;22519;-72
2022/01/16 06:28:43;;;;;;;157.20;101.70;;;;;;;-5.26;81.94;98508.13;109673;1273;22520;-70
2022/01/16 06:31:11;;;;;;;132.00;83.80;;;;;;;-5.27;82.29;98506.41;109683;1272;22551;-70
2022/01/16 06:33:39;;;;;;;160.50;106.60;;;;;;;-5.28;82.01;98507.90;109680;1274;22584;-70
2022/01/16 06:36:07;;;;;;;141.20;91.30;;;;;;;-5.23;82.15;98501.98;109660;1273;22544;-70
2022/01/16 06:38:35;;;;;;;128.00;89.10;;;;;;;-5.17;82.01;98501.64;109655;1273;23014;-71
2022/01/16 06:41:03;;;;;;;138.70;95.70;;;;;;;-5.18;81.90;98494.69;109682;1272;22433;-71
2022/01/16 06:43:33;;;;;;;126.10;91.30;;;;;;;-5.14;82.43;98494.61;109682;1273;22413;-70
2022/01/16 06:46:01;;;;;;;125.10;87.70;;;;;;;-5.09;82.59;98482.95;109664;1272;22456;-70
2022/01/16 06:48:30;;;;;;;105.10;84.90;;;;;;;-5.02;82.77;98483.52;109659;1274;22396;-69
2022/01/16 06:50:59;;;;;;;94.30;75.60;;;;;;;-4.94;82.83;98479.48;109565;1274;138121;-69
2022/01/16 06:53:27;;;;;;;77.10;68.70;;;;;;;-4.85;82.87;98478.98;109666;1272;23672;-69
2022/01/16 06:55:55;;;;;;;81.60;66.60;;;;;;;-4.77;82.49;98475.91;109666;1273;22404;-70
2022/01/16 06:58:23;;;;;;;90.00;68.10;;;;;;;-4.70;82.39;98478.09;109649;1272;22449;-70
2022/01/16 07:00:52;;;;;;;75.40;67.10;;;;;;;-4.60;82.80;98475.64;109665;1274;22458;-70
2022/01/16 07:03:20;;;;;;;86.70;69.80;;;;;;;-4.48;83.04;98475.19;109665;1273;22472;-71
2022/01/16 07:05:48;;;;;;;84.60;70.70;;;;;;;-4.37;83.14;98465.83;109661;1274;22436;-71
2022/01/16 07:08:16;;;;;;;101.70;73.40;;;;;;;-4.28;83.23;98458.17;109681;1273;22504;-71
2022/01/16 07:10:44;;;;;;;80.90;65.60;;;;;;;-4.19;82.99;98458.25;109685;1274;23226;-70
2022/01/16 07:13:13;;;;;;;92.50;66.80;;;;;;;-4.08;82.82;98459.66;109669;1274;22512;-70
2022/01/16 07:15:41;;;;;;;92.80;70.90;;;;;;;-4.01;82.69;98457.73;109661;1274;22524;-71
2022/01/16 07:18:09;;;;;;;80.20;71.60;;;;;;;-3.93;82.96;98458.21;109659;1274;22454;-72
2022/01/16 07:20:37;;;;;;;96.10;74.80;;;;;;;-3.85;82.89;98453.88;109671;1273;22507;-70
2022/01/16 07:23:06;;;;;;;100.40;81.60;;;;;;;-3.78;83.16;98454.54;109660;1273;23359;-71
2022/01/16 07:25:34;;;;;;;125.50;86.80;;;;;;;-3.70;83.08;98459.33;109655;1273;22513;-71
2022/01/16 07:28:03;;;;;;;139.10;94.40;;;;;;;-3.60;83.25;98456.71;109660;1274;22419;-70
2022/01/16 07:30:31;;;;;;;127.10;87.40;;;;;;;-3.48;83.20;98456.41;109664;1273;23631;-72
2022/01/16 07:33:00;;;;;;;133.00;85.10;;;;;;;-3.39;82.98;98458.41;109660;1272;22252;-73
2022/01/16 07:35:29;;;;;;;141.10;96.20;;;;;;;-3.29;82.93;98455.73;109663;1274;22723;-72
2022/01/16 07:38:07;;;;;;;189.10;113.00;;;;;;;-3.20;82.97;98453.86;109677;1274;22453;-70
2022/01/16 07:40:36;;;;;;;238.30;142.50;;;;;;;-3.16;83.02;98455.51;109689;1273;22425;-73
2022/01/16 07:43:05;;;;;;;297.10;165.90;;;;;;;-3.12;83.12;98455.33;109677;1274;22486;-73
2022/01/16 07:45:34;;;;;;;269.20;157.30;;;;;;;-3.10;82.94;98453.30;109600;1274;22448;-73
2022/01/16 07:48:02;;;;;;;194.20;123.00;;;;;;;-3.07;83.10;98456.59;109589;1272;22596;-72
2022/01/16 07:50:30;;;;;;;193.10;122.70;;;;;;;-3.02;82.94;98458.80;109668;1272;22578;-74
2022/01/16 07:52:59;;;;;;;214.40;137.10;;;;;;;-2.98;82.80;98444.98;109689;1273;22453;-72
2022/01/16 07:55:27;;;;;;;216.70;143.20;;;;;;;-2.89;82.91;98444.85;109708;1273;22571;-71
2022/01/16 07:57:56;;;;;;;227.40;151.50;;;;;;;-2.83;82.98;98451.08;109607;1274;22977;-72
2022/01/16 08:00:33;;;;;;;227.90;153.60;;;;;;;-2.78;82.98;98448.90;109672;1273;22412;-71
2022/01/16 08:03:02;;;;;;;231.30;161.40;;;;;;;-2.76;83.14;98448.86;109658;1273;22581;-72
2022/01/16 08:05:34;;;;;;;222.80;152.30;;;;;;;-2.72;83.10;98452.48;109655;1274;22410;-70
2022/01/16 08:08:03;;;;;;;225.70;151.30;;;;;;;-2.71;83.06;98441.29;109676;1273;22417;-72
2022/01/16 08:10:32;;;;;;;226.30;153.50;;;;;;;-2.65;83.15;98447.23;109652;1273;22443;-71
2022/01/16 08:13:00;;;;;;;248.40;170.20;;;;;;;-2.56;83.19;98444.15;109659;1272;23542;-72
2022/01/16 08:15:29;;;;;;;257.30;176.60;;;;;;;-2.45;83.02;98440.15;109676;1272;22472;-72
2022/01/16 08:17:58;;;;;;;243.20;170.40;;;;;;;-2.37;83.00;98435.04;109681;1274;22422;-71
2022/01/16 08:20:26;;;;;;;240.70;169.80;;;;;;;-2.29;83.33;98431.80;109670;1274;22454;-70
2022/01/16 08:22:54;;;;;;;227.00;159.90;;;;;;;-2.19;83.32;98427.60;109657;1274;22548;-72
2022/01/16 08:25:23;;;;;;;205.00;140.60;;;;;;;-2.10;83.35;98421.64;109663;1273;23090;-72
2022/01/16 08:27:51;;;;;;;201.40;134.10;;;;;;;-2.01;83.54;98422.15;109685;1274;22443;-71
2022/01/16 08:30:19;;;;;;;198.00;126.20;;;;;;;-1.91;83.55;98420.27;109529;1273;138877;-71
2022/01/16 08:32:47;;;;;;;186.10;121.20;;;;;;;-1.78;83.51;98407.33;109670;1273;22447;-74
2022/01/16 08:35:20;;;;;;;183.30;120.40;;;;;;;-1.63;83.56;98404.08;109673;1272;22426;-74
2022/01/16 08:37:48;;;;;;;187.40;124.40;;;;;;;-1.50;83.70;98404.21;109678;1273;22539;-74
2022/01/16 08:40:17;;;;;;;177.70;118.90;;;;;;;-1.39;83.81;98397.74;109650;1274;22459;-73
2022/01/16 08:42:45;;;;;;;175.00;112.90;;;;;;;-1.28;83.78;98393.10;109589;1274;22663;-74
2022/01/16 08:45:13;;;;;;;172.50;113.90;;;;;;;-1.18;83.70;98389.80;109687;1274;22580;-72
2022/01/16 08:47:41;;;;;;;156.50;99.00;;;;;;;-1.10;83.79;98380.94;109601;1274;22508;-73
2022/01/16 08:50:10;;;;;;;109.50;78.80;;;;;;;-1.00;83.68;98373.97;109663;1273;22464;-71
2022/01/16 08:52:39;;;;;;;112.10;77.60;;;;;;;-0.92;83.45;98374.03;109672;1273;22493;-71
2022/01/16 08:55:09;;;;;;;101.10;77.60;;;;;;;-0.82;83.32;98374.05;109666;1274;22432;-70
2022/01/16 08:57:38;;;;;;;123.50;88.10;;;;;;;-0.77;83.16;98368.25;109678;1274;23263;-72
2022/01/16 09:00:07;;;;;;;118.40;86.90;;;;;;;-0.75;83.28;98364.58;109659;1274;22622;-73
2022/01/16 09:02:35;;;;;;;133.50;90.00;;;;;;;-0.68;83.26;98365.75;109680;1273;22620;-72
2022/01/16 09:05:05;;;;;;;149.60;96.60;;;;;;;-0.61;83.48;98359.87;109690;1273;22520;-69
2022/01/16 09:07:33;;;;;;;149.70;95.00;;;;;;;-0.53;83.56;98355.53;109673;1273;22510;-73
2022/01/16 09:10:02;;;;;;;150.70;92.80;;;;;;;-0.48;83.14;98353.95;109676;1273;23154;-73
2022/01/16 09:12:30;;;;;;;141.70;89.10;;;;;;;-0.40;83.05;98350.09;109666;1274;22544;-73
2022/01/16 09:14:59;;;;;;;134.10;87.80;;;;;;;-0.27;83.47;98339.02;109684;1273;22414;-73
2022/01/16 09:17:27;;;;;;;142.20;91.80;;;;;;;-0.19;83.12;98338.75;109679;1273;22481;-71
2022/01/16 09:19:55;;;;;;;143.50;93.80;;;;;;;-0.12;83.15;98341.85;109663;1274;22660;-73
2022/01/16 09:22:24;;;;;;;144.20;94.00;;;;;;;-0.05;83.15;98337.70;109669;1273;22506;-73
2022/01/16 09:24:52;;;;;;;126.70;91.20;;;;;;;0.03;83.24;98337.02;109690;1274;23238;-72
2022/01/16 09:27:20;;;;;;;94.60;76.70;;;;;;;0.12;83.26;98336.31;109677;1273;23061;-74
2022/01/16 09:29:48;;;;;;;83.90;70.80;;;;;;;0.18;83.19;98330.95;109680;1273;22464;-73
2022/01/16 09:32:17;;;;;;;86.20;74.20;;;;;;;0.24;82.97;98321.09;109679;1273;22476;-75
2022/01/16 09:34:45;;;;;;;107.40;80.90;;;;;;;0.32;82.90;98313.63;109682;1272;23186;-74
2022/01/16 09:37:13;;;;;;;111.00;86.40;;;;;;;0.37;82.77;98317.77;109681;1273;23035;-72
2022/01/16 09:39:41;;;;;;;123.30;89.40;;;;;;;0.42;82.85;98316.47;109676;1273;22511;-75
2022/01/16 09:42:09;;;;;;;124.50;88.10;;;;;;;0.49;82.84;98309.91;109677;1274;22590;-74
2022/01/16 09:44:39;;;;;;;127.80;93.80;;;;;;;0.54;82.67;98306.74;109666;1273;22459;-73
2022/01/16 09:47:09;;;;;;;110.00;83.10;;;;;;;0.56;82.51;98307.17;109663;1274;22511;-73
2022/01/16 09:49:37;;;;;;;93.90;75.40;;;;;;;0.55;82.39;98300.36;109685;1274;22439;-73
2022/01/16 09:52:06;;;;;;;127.20;83.50;;;;;;;0.58;82.24;98302.08;109702;1272;22476;-74
2022/01/16 09:54:37;;;;;;;145.80;86.30;;;;;;;0.61;82.21;98302.65;109688;1274;22554;-71
2022/01/16 09:57:06;;;;;;;135.50;84.50;;;;;;;0.64;81.96;98303.16;109603;1274;22523;-71
2022/01/16 09:59:35;;;;;;;102.60;74.50;;;;;;;0.66;81.77;98300.09;109665;1273;23126;-71
2022/01/16 10:02:05;;;;;;;116.00;81.30;;;;;;;0.70;81.76;98295.79;109659;1274;22462;-70
2022/01/16 10:04:36;;;;;;;98.40;70.20;;;;;;;0.74;81.66;98293.02;109685;1274;23200;-72
2022/01/16 10:07:14;;;;;;;70.70;63.10;;;;;;;0.79;81.65;98283.84;109592;1273;22542;-71
2022/01/16 10:09:46;;;;;;;72.90;64.70;;;;;;;0.89;81.59;98282.17;109679;1274;22434;-71
2022/01/16 10:12:18;;;;;;;65.20;55.20;;;;;;;0.99;81.61;98277.55;109659;1274;23313;-72
2022/01/16 10:14:49;;;;;;;66.10;58.90;;;;;;;1.07;81.47;98271.67;109661;1272;22465;-73
2022/01/16 10:17:19;;;;;;;76.00;67.50;;;;;;;1.13;81.48;98274.06;109693;1274;22457;-73
2022/01/16 10:20:04;;;;;;;59.60;53.30;;;;;;;1.18;81.20;98274.72;109656;1274;23120;-72
2022/01/16 10:22:45;;;;;;;53.10;47.60;;;;;;;1.20;81.08;98272.52;109664;1273;22477;-73
2022/01/16 10:25:15;;;;;;;52.30;46.90;;;;;;;1.20;81.03;98265.41;109673;1274;22438;-72
2022/01/16 10:27:46;;;;;;;54.60;48.80;;;;;;;1.27;81.04;98264.82;109679;1272;22471;-71
2022/01/16 10:30:17;;;;;;;72.70;63.60;;;;;;;1.30;80.77;98257.54;109674;1272;23273;-69
2022/01/16 10:32:46;;;;;;;50.70;44.10;;;;;;;1.38;80.39;98256.92;109678;1274;22583;-70
2022/01/16 10:35:20;;;;;;;49.50;44.10;;;;;;;1.39;79.29;98254.28;109661;1274;23286;-69
2022/01/16 10:37:52;;;;;;;56.70;44.20;;;;;;;1.38;78.88;98254.67;109674;1274;23671;-70
2022/01/16 10:40:32;;;;;;;48.30;42.60;;;;;;;1.36;78.96;98251.15;109689;1273;22422;-67
2022/01/16 10:43:05;;;;;;;53.60;46.90;;;;;;;1.35;78.39;98249.78;109678;1274;22602;-71
2022/01/16 10:45:35;;;;;;;52.20;46.60;;;;;;;1.31;78.66;98246.73;109676;1273;22481;-69
2022/01/16 10:48:03;;;;;;;52.40;46.70;;;;;;;1.29;78.78;98245.30;109680;1274;22536;-70
2022/01/16 10:50:43;;;;;;;53.40;47.70;;;;;;;1.28;76.16;98238.21;109675;1273;22413;-69
2022/01/16 10:53:16;;;;;;;52.60;47.00;;;;;;;1.28;76.78;98234.33;109679;1274;23181;-70
2022/01/16 10:55:56;;;;;;;50.60;44.20;;;;;;;1.29;76.27;98227.13;109679;1272;23185;-70
2022/01/16 10:58:39;;;;;;;48.10;42.60;;;;;;;1.28;75.64;98226.32;109685;1273;23253;-68
2022/01/16 11:01:13;;;;;;;51.20;45.60;;;;;;;1.29;76.41;98225.65;109569;1274;138581;-66
2022/01/16 11:03:47;;;;;;;52.50;46.80;;;;;;;1.33;76.54;98217.34;109657;1274;22520;-67
2022/01/16 11:06:17;;;;;;;50.60;45.30;;;;;;;1.39;75.40;98221.29;109694;1272;23298;-67
2022/01/16 11:08:50;;;;;;;49.40;44.10;;;;;;;1.40;75.22;98212.52;109663;1273;22459;-68
2022/01/16 11:11:20;;;;;;;47.80;42.70;;;;;;;1.47;75.49;98205.17;109655;1272;23336;-67
2022/01/16 11:13:50;;;;;;;46.90;41.90;;;;;;;1.54;75.63;98198.32;109668;1274;22533;-67
2022/01/16 11:16:18;;;;;;;48.10;42.70;;;;;;;1.58;75.78;98193.95;109680;1273;22454;-66
2022/01/16 11:18:51;;;;;;;50.20;44.80;;;;;;;1.63;75.06;98194.52;109667;1273;22626;-66
2022/01/16 11:21:34;;;;;;;48.70;43.20;;;;;;;1.69;71.70;98195.20;109676;1274;22598;-66
2022/01/16 11:26:34;;;;;;;58.90;50.80;;;;;;;1.85;73.98;98190.84;109663;1274;22387;-67
2022/01/16 11:29:02;;;;;;;54.70;46.70;;;;;;;1.95;73.16;98191.19;109556;1274;137907;-65
2022/01/16 11:31:31;;;;;;;51.20;44.40;;;;;;;2.11;71.87;98193.05;109613;1273;22513;-68
2022/01/16 11:34:00;;;;;;;48.30;42.90;;;;;;;2.35;70.93;98192.70;109602;1274;22441;-68
2022/01/16 11:36:29;;;;;;;44.40;38.30;;;;;;;2.67;70.37;98191.89;109614;1274;22415;-68
2022/01/16 11:38:59;;;;;;;53.90;48.10;;;;;;;2.99;69.23;98187.45;109547;1274;22674;-69
2022/01/16 11:41:42;;;;;;;45.30;40.20;;;;;;;3.27;69.95;98196.55;109622;1274;22611;-70
2022/01/16 11:44:32;;;;;;;46.60;37.10;;;;;;;3.56;70.09;98190.27;109605;1274;22552;-69
2022/01/16 11:47:03;;;;;;;37.30;33.30;;;;;;;3.86;68.35;98194.75;109634;1274;22525;-69
2022/01/16 11:49:42;;;;;;;44.80;37.00;;;;;;;4.04;65.70;98200.15;109489;1274;24292;-67
2022/01/16 11:52:18;;;;;;;38.10;33.90;;;;;;;4.28;68.65;98187.45;109632;1274;23139;-68
2022/01/16 11:54:49;;;;;;;37.00;32.40;;;;;;;4.48;66.12;98188.40;109640;1273;22595;-67
2022/01/16 11:57:23;;;;;;;36.30;29.60;;;;;;;4.60;66.34;98183.92;109599;1274;22290;-70
2022/01/16 11:59:54;;;;;;;39.80;31.90;;;;;;;4.74;65.65;98181.49;109540;1274;137726;-69